Time;durP1;ratioP1;P1;durP2;ratioP2;P2;SDS_P1;SDS_P2;PMS_P1;PMS_P2;Temp;Humidity;BMP_temperature;BMP_pressure;BME280_temperature;BME280_humidity;BME280_pressure;Samples;Min_cycle;Max_cycle;Signal;HPM_P1;HPM_P2
2023/04/26 00:03:44;;;;;;;13.40;5.50;;;;;;;;;;10552225;28;20055;-76
2023/04/26 00:09:10;;;;;;;14.75;5.75;;;;;;;;;;10546296;28;20044;-75
2023/04/26 00:14:32;;;;;;;;;;;;;;;;;;10546145;28;20055;-76
2023/04/26 00:19:57;;;;;;;15.57;6.30;;;;;;;;;;10537242;28;20411;-76
2023/04/26 00:25:21;;;;;;;14.73;5.53;;;;;;;;;;10560128;28;20055;-76
2023/04/26 00:30:47;;;;;;;16.60;5.78;;;;;;;;;;10559249;28;20443;-76
2023/04/26 00:36:10;;;;;;;16.85;6.30;;;;;;;;;;10554644;28;20051;-75
2023/04/26 00:41:35;;;;;;;12.18;5.43;;;;;;;;;;10559140;28;20071;-75
2023/04/26 00:46:58;;;;;;;12.98;5.47;;;;;;;;;;10551765;27;20044;-77
2023/04/26 00:52:22;;;;;;;13.40;5.05;;;;;;;;;;10560712;28;20032;-76
2023/04/26 00:57:47;;;;;;;12.43;5.15;;;;;;;;;;10560097;27;20507;-77
2023/04/26 01:03:10;;;;;;;13.88;4.95;;;;;;;;;;10550371;28;20178;-76
2023/04/26 01:08:33;;;;;;;4.97;2.55;;;;;;;;;;10551914;27;20207;-76
2023/04/26 01:13:58;;;;;;;7.88;3.83;;;;;;;;;;10558216;27;20063;-76
2023/04/26 01:19:21;;;;;;;11.30;4.78;;;;;;;;;;10556838;27;20512;-76
2023/04/26 01:24:46;;;;;;;9.52;3.42;;;;;;;;;;10556413;28;20508;-76
2023/04/26 01:30:10;;;;;;;6.35;2.50;;;;;;;;;;10543776;28;20040;-76
2023/04/26 01:35:33;;;;;;;10.32;4.55;;;;;;;;;;10554936;27;20044;-75
2023/04/26 01:40:58;;;;;;;8.40;2.75;;;;;;;;;;10564512;27;20043;-76
2023/04/26 01:46:21;;;;;;;10.65;4.60;;;;;;;;;;10557253;27;20412;-76
2023/04/26 01:51:44;;;;;;;6.75;3.15;;;;;;;;;;10557897;27;20417;-76
2023/04/26 01:57:09;;;;;;;9.10;3.72;;;;;;;;;;10557917;27;20043;-75
2023/04/26 02:02:32;;;;;;;10.20;4.57;;;;;;;;;;10556815;27;20059;-76
2023/04/26 02:07:55;;;;;;;8.38;3.47;;;;;;;;;;10550389;27;20051;-76
2023/04/26 02:13:20;;;;;;;11.57;4.73;;;;;;;;;;10560127;27;20055;-76
2023/04/26 02:18:43;;;;;;;11.85;4.45;;;;;;;;;;10557911;27;20047;-76
2023/04/26 02:24:06;;;;;;;9.43;3.85;;;;;;;;;;10560713;27;20051;-76
2023/04/26 02:29:30;;;;;;;8.18;2.70;;;;;;;;;;10561531;27;20039;-76
2023/04/26 02:35:06;;;;;;;4.07;1.80;;;;;;;;;;10560075;27;20052;-75
2023/04/26 02:40:30;;;;;;;6.82;3.00;;;;;;;;;;10561221;27;20044;-74
2023/04/26 02:45:57;;;;;;;8.73;3.67;;;;;;;;;;10559654;27;20098;-75
2023/04/26 02:51:20;;;;;;;6.40;2.58;;;;;;;;;;10566897;27;20505;-75
2023/04/26 02:56:44;;;;;;;8.40;3.72;;;;;;;;;;10557210;28;20050;-75
2023/04/26 03:02:08;;;;;;;6.77;2.57;;;;;;;;;;10554748;27;20083;-75
2023/04/26 03:07:31;;;;;;;8.98;2.92;;;;;;;;;;10553326;28;20520;-76
2023/04/26 03:12:55;;;;;;;3.97;1.75;;;;;;;;;;10544830;28;20124;-76
2023/04/26 03:18:19;;;;;;;9.73;3.53;;;;;;;;;;10531965;28;20047;-76
2023/04/26 03:23:42;;;;;;;;;;;;;;;;;;10557795;28;20114;-75
2023/04/26 03:29:05;;;;;;;10.13;3.47;;;;;;;;;;10556170;28;19951;-75
2023/04/26 03:34:30;;;;;;;8.47;2.63;;;;;;;;;;10550127;28;20074;-74
2023/04/26 03:39:53;;;;;;;;;;;;;;;;;;10562833;28;20050;-75
2023/04/26 03:45:16;;;;;;;4.45;1.38;;;;;;;;;;10564405;28;19966;-75
2023/04/26 03:50:41;;;;;;;9.27;3.45;;;;;;;;;;10554889;28;20027;-75
2023/04/26 03:56:04;;;;;;;5.60;2.83;;;;;;;;;;10550468;28;20154;-75
2023/04/26 04:01:27;;;;;;;10.13;4.35;;;;;;;;;;10557065;28;20038;-77
2023/04/26 04:06:52;;;;;;;8.88;3.63;;;;;;;;;;10556285;28;20071;-77
2023/04/26 04:12:16;;;;;;;10.15;4.40;;;;;;;;;;10563791;27;20042;-76
2023/04/26 04:17:39;;;;;;;6.35;3.13;;;;;;;;;;10560462;27;20496;-77
2023/04/26 04:23:06;;;;;;;3.42;1.38;;;;;;;;;;10551238;27;20078;-76
2023/04/26 04:28:30;;;;;;;8.63;3.80;;;;;;;;;;10564849;27;20509;-76
2023/04/26 04:33:54;;;;;;;6.47;2.58;;;;;;;;;;10557586;28;20043;-77
2023/04/26 04:39:18;;;;;;;11.68;5.07;;;;;;;;;;10556693;27;20053;-76
2023/04/26 04:44:41;;;;;;;10.68;4.15;;;;;;;;;;10558822;27;20567;-76
2023/04/26 04:50:05;;;;;;;9.20;4.05;;;;;;;;;;10562476;27;20058;-76
2023/04/26 04:55:29;;;;;;;8.98;3.00;;;;;;;;;;10559161;27;20050;-76
2023/04/26 05:00:54;;;;;;;12.70;4.40;;;;;;;;;;10564497;27;20050;-77
2023/04/26 05:06:17;;;;;;;;;;;;;;;;;;10554219;28;20043;-76
2023/04/26 05:11:41;;;;;;;10.98;4.32;;;;;;;;;;10562002;27;19924;-76
2023/04/26 05:17:04;;;;;;;;;;;;;;;;;;10544017;28;20071;-76
2023/04/26 05:22:27;;;;;;;13.13;5.05;;;;;;;;;;10571722;27;19920;-75
2023/04/26 05:27:52;;;;;;;14.00;5.25;;;;;;;;;;10560434;27;20040;-76
2023/04/26 05:33:14;;;;;;;;;;;;;;;;;;10558901;27;20036;-78
2023/04/26 05:38:38;;;;;;;7.90;3.35;;;;;;;;;;10554833;28;20494;-75
2023/04/26 05:44:02;;;;;;;12.60;4.60;;;;;;;;;;10560765;28;20059;-74
2023/04/26 05:49:25;;;;;;;16.33;5.68;;;;;;;;;;10560209;28;20047;-75
2023/04/26 05:54:48;;;;;;;3.15;1.63;;;;;;;;;;10559738;27;20412;-75
2023/04/26 06:00:14;;;;;;;6.78;2.28;;;;;;;;;;10566006;27;20039;-75
2023/04/26 06:05:38;;;;;;;14.38;4.75;;;;;;;;;;10564072;27;20058;-75
2023/04/26 06:11:01;;;;;;;10.30;4.43;;;;;;;;;;10572399;27;20046;-76
2023/04/26 06:16:25;;;;;;;12.95;4.78;;;;;;;;;;10549620;27;20054;-76
2023/04/26 06:21:48;;;;;;;11.85;5.13;;;;;;;;;;10556902;27;20039;-76
2023/04/26 06:27:11;;;;;;;9.10;3.88;;;;;;;;;;10543595;27;20338;-75
2023/04/26 06:32:36;;;;;;;14.43;5.35;;;;;;;;;;10559124;27;20405;-75
2023/04/26 06:37:59;;;;;;;7.63;3.17;;;;;;;;;;10554595;27;20281;-75
2023/04/26 06:43:22;;;;;;;13.65;5.18;;;;;;;;;;10552540;28;20052;-75
2023/04/26 06:48:47;;;;;;;13.27;4.35;;;;;;;;;;10555870;28;20047;-76
2023/04/26 06:54:10;;;;;;;9.80;3.72;;;;;;;;;;10545075;28;20068;-74
2023/04/26 06:59:34;;;;;;;5.60;2.53;;;;;;;;;;10554910;28;20066;-75
2023/04/26 07:04:58;;;;;;;11.03;5.00;;;;;;;;;;10550417;28;20050;-75
2023/04/26 07:10:21;;;;;;;13.13;5.25;;;;;;;;;;10554891;27;20051;-76
2023/04/26 07:15:44;;;;;;;13.75;5.32;;;;;;;;;;10548210;28;20637;-76
2023/04/26 07:21:09;;;;;;;13.90;5.30;;;;;;;;;;10545309;28;20074;-76
2023/04/26 07:26:32;;;;;;;11.20;4.78;;;;;;;;;;10539342;28;20489;-76
2023/04/26 07:31:55;;;;;;;12.68;5.68;;;;;;;;;;10554811;28;20039;-76
2023/04/26 07:37:20;;;;;;;10.37;5.10;;;;;;;;;;10552859;28;20051;-77
2023/04/26 07:42:42;;;;;;;;;;;;;;;;;;10555100;28;20867;-76
2023/04/26 07:48:06;;;;;;;13.20;5.20;;;;;;;;;;10557535;28;19927;-76
2023/04/26 07:53:30;;;;;;;9.35;4.90;;;;;;;;;;10544937;28;20309;-76
2023/04/26 07:58:53;;;;;;;12.35;4.88;;;;;;;;;;10566723;27;20043;-76
2023/04/26 08:04:17;;;;;;;11.10;4.47;;;;;;;;;;10565231;27;20043;-77
2023/04/26 08:09:42;;;;;;;13.13;6.25;;;;;;;;;;10577802;27;20122;-75
2023/04/26 08:15:06;;;;;;;10.88;4.93;;;;;;;;;;10561654;28;20413;-76
2023/04/26 08:20:28;;;;;;;;;;;;;;;;;;10544714;27;20032;-77
2023/04/26 08:25:51;;;;;;;;;;;;;;;;;;10553364;28;19920;-78
2023/04/26 08:31:14;;;;;;;;;;;;;;;;;;10559248;27;20053;-77
2023/04/26 08:36:39;;;;;;;;;;;;;;;;;;10563834;27;19920;-76
2023/04/26 08:42:12;;;;;;;9.00;4.30;;;;;;;;;;10549700;27;19920;-76
2023/04/26 08:47:38;;;;;;;11.32;4.82;;;;;;;;;;10553616;27;20067;-76
2023/04/26 08:53:02;;;;;;;11.27;4.72;;;;;;;;;;10562581;27;20040;-77
2023/04/26 08:58:26;;;;;;;9.68;4.22;;;;;;;;;;10559681;27;20417;-76
2023/04/26 09:03:50;;;;;;;8.90;4.03;;;;;;;;;;10554554;28;20752;-77
2023/04/26 09:09:16;;;;;;;8.50;3.83;;;;;;;;;;10552564;27;20930;-76
2023/04/26 09:14:41;;;;;;;9.50;4.72;;;;;;;;;;10566205;27;21000;-77
2023/04/26 09:20:18;;;;;;;9.93;4.73;;;;;;;;;;10552699;28;20543;-77
2023/04/26 09:25:41;;;;;;;9.93;4.72;;;;;;;;;;10550987;27;20433;-77
2023/04/26 09:30:44;;;;;;;10.80;4.70;;;;;;;;;;10558583;28;20441;-77
2023/04/26 09:35:47;;;;;;;7.80;4.70;;;;;;;;;;10749844;22;20437;-83
2023/04/26 09:40:49;;;;;;;;;;;;;;;;;;10500778;28;20043;-84
2023/04/26 09:45:52;;;;;;;;;;;;;;;;;;10520992;28;19926;-82
2023/04/26 09:50:54;;;;;;;;;;;;;;;;;;10530373;28;20046;-83
2023/04/26 09:55:57;;;;;;;;;;;;;;;;;;10523981;28;19955;-83
2023/04/26 10:00:59;;;;;;;;;;;;;;;;;;10533946;28;19928;-85
2023/04/26 10:06:01;;;;;;;;;;;;;;;;;;10530627;28;20367;-83
2023/04/26 10:11:04;;;;;;;;;;;;;;;;;;10535499;28;19973;-83
2023/04/26 10:16:07;;;;;;;;;;;;;;;;;;10522597;28;20414;-83
2023/04/26 10:21:09;;;;;;;;;;;;;;;;;;10529199;28;19924;-84
2023/04/26 10:26:11;;;;;;;;;;;;;;;;;;10526762;28;19923;-84
2023/04/26 10:31:14;;;;;;;;;;;;;;;;;;10537824;28;20335;-82
2023/04/26 10:36:16;;;;;;;;;;;;;;;;;;10531803;28;20390;-83
2023/04/26 10:41:19;;;;;;;;;;;;;;;;;;10531523;28;20358;-83
2023/04/26 10:46:21;;;;;;;;;;;;;;;;;;10520621;28;19943;-84
2023/04/26 10:51:23;;;;;;;;;;;;;;;;;;10532272;28;19967;-84
2023/04/26 10:56:26;;;;;;;;;;;;;;;;;;10537043;28;19920;-84
2023/04/26 11:01:28;;;;;;;;;;;;;;;;;;10535012;28;20371;-84
2023/04/26 11:06:31;;;;;;;;;;;;;;;;;;10528873;28;19920;-84
2023/04/26 11:11:33;;;;;;;;;;;;;;;;;;10535594;28;19920;-84
2023/04/26 11:16:36;;;;;;;;;;;;;;;;;;10529887;28;19993;-83
2023/04/26 11:21:38;;;;;;;;;;;;;;;;;;10528462;28;20349;-83
2023/04/26 11:26:41;;;;;;;;;;;;;;;;;;10529516;28;19927;-84
2023/04/26 11:31:44;;;;;;;;;;;;;;;;;;10541573;28;19920;-83
2023/04/26 11:36:47;;;;;;;;;;;;;;;;;;10533016;28;19942;-84
2023/04/26 11:41:49;;;;;;;;;;;;;;;;;;10529711;28;20194;-83
2023/04/26 11:46:51;;;;;;;;;;;;;;;;;;10514661;28;20008;-83
2023/04/26 11:51:54;;;;;;;;;;;;;;;;;;10527675;28;20018;-83
2023/04/26 11:56:57;;;;;;;;;;;;;;;;;;10528610;28;20020;-83
2023/04/26 12:02:00;;;;;;;;;;;;;;;;;;10543561;28;19926;-84
2023/04/26 12:07:02;;;;;;;;;;;;;;;;;;10542174;28;19924;-83
2023/04/26 12:12:06;;;;;;;;;;;;;;;;;;10513272;28;20312;-84
2023/04/26 12:17:09;;;;;;;;;;;;;;;;;;10530251;28;19919;-84
2023/04/26 12:22:11;;;;;;;;;;;;;;;;;;10533148;28;19920;-84
2023/04/26 12:27:14;;;;;;;;;;;;;;;;;;10533454;28;19928;-83
2023/04/26 12:32:17;;;;;;;;;;;;;;;;;;10539156;28;20018;-83
2023/04/26 12:37:21;;;;;;;;;;;;;;;;;;10543959;28;19927;-84
2023/04/26 12:42:23;;;;;;;;;;;;;;;;;;10547546;28;19931;-84
2023/04/26 12:47:26;;;;;;;;;;;;;;;;;;10562180;28;19924;-84
2023/04/26 12:52:29;;;;;;;;;;;;;;;;;;10568568;28;19947;-84
2023/04/26 12:57:31;;;;;;;;;;;;;;;;;;10566041;28;19934;-83
2023/04/26 13:02:35;;;;;;;6.47;3.25;;;;;;;;;;10568131;28;19924;-82
2023/04/26 13:09:27;;;;;;;6.50;2.95;;;;;;;;;;10644371;27;20385;-92
2023/04/26 13:14:31;;;;;;;6.65;3.20;;;;;;;;;;10634027;27;20039;-90
2023/04/26 13:19:43;;;;;;;7.45;3.50;;;;;;;;;;10627576;28;20443;-90
2023/04/26 13:25:17;;;;;;;4.03;2.22;;;;;;;;;;10603527;27;20028;-90
2023/04/26 13:30:21;;;;;;;8.82;3.30;;;;;;;;;;10589700;27;20127;-85
2023/04/26 13:35:26;;;;;;;7.10;2.90;;;;;;;;;;10589594;27;20035;-87
2023/04/26 13:40:38;;;;;;;6.03;3.00;;;;;;;;;;10585497;27;20414;-86
2023/04/26 13:45:46;;;;;;;5.15;2.92;;;;;;;;;;10586255;27;20051;-85
2023/04/26 13:50:58;;;;;;;6.55;2.88;;;;;;;;;;10583724;27;20428;-88
2023/04/26 13:56:08;;;;;;;14.65;7.20;;;;;;;;;;10585200;27;20400;-86
2023/04/26 14:01:18;;;;;;;7.32;3.10;;;;;;;;;;10586071;27;20047;-85
2023/04/26 14:06:29;;;;;;;5.82;2.60;;;;;;;;;;10584949;27;20338;-86
2023/04/26 14:11:35;;;;;;;6.45;2.67;;;;;;;;;;10579139;27;20110;-85
2023/04/26 14:16:38;;;;;;;5.07;2.60;;;;;;;;;;10579505;27;20040;-85
2023/04/26 14:21:42;;;;;;;6.30;2.58;;;;;;;;;;10554243;27;20104;-85
2023/04/26 14:26:48;;;;;;;7.28;3.40;;;;;;;;;;10562186;27;20399;-85
2023/04/26 14:31:55;;;;;;;9.07;2.55;;;;;;;;;;10559170;28;20052;-86
2023/04/26 14:37:00;;;;;;;6.78;2.75;;;;;;;;;;10564358;28;20052;-86
2023/04/26 14:42:11;;;;;;;7.97;3.10;;;;;;;;;;10577809;28;20059;-85
2023/04/26 14:47:16;;;;;;;7.88;2.90;;;;;;;;;;10576444;28;20109;-85
2023/04/26 14:52:25;;;;;;;6.22;2.95;;;;;;;;;;10568435;28;20117;-86
2023/04/26 14:57:51;;;;;;;7.78;2.50;;;;;;;;;;10561767;27;20653;-86
2023/04/26 15:03:01;;;;;;;5.90;3.00;;;;;;;;;;10563692;28;20054;-86
2023/04/26 15:08:14;;;;;;;5.78;2.80;;;;;;;;;;10556388;28;20551;-87
2023/04/26 15:13:46;;;;;;;5.28;2.47;;;;;;;;;;10561471;28;20472;-86
2023/04/26 15:18:55;;;;;;;4.80;2.78;;;;;;;;;;10552261;27;20402;-86
2023/04/26 15:24:13;;;;;;;4.80;2.60;;;;;;;;;;10561171;28;20047;-87
2023/04/26 15:29:39;;;;;;;6.50;2.72;;;;;;;;;;10550767;28;20094;-87
2023/04/26 15:34:57;;;;;;;7.15;2.67;;;;;;;;;;10555528;27;20043;-86
2023/04/26 15:40:09;;;;;;;5.32;2.50;;;;;;;;;;10564265;27;20046;-85
2023/04/26 15:45:16;;;;;;;3.38;2.50;;;;;;;;;;10554819;27;20136;-86
2023/04/26 15:50:24;;;;;;;5.80;2.60;;;;;;;;;;10558324;28;20054;-86
2023/04/26 15:55:36;;;;;;;10.52;3.78;;;;;;;;;;10562087;27;20047;-87
2023/04/26 16:01:09;;;;;;;8.45;3.40;;;;;;;;;;10556124;27;20097;-85
2023/04/26 16:06:16;;;;;;;4.82;2.20;;;;;;;;;;10548025;28;20043;-85
2023/04/26 16:11:25;;;;;;;5.63;2.90;;;;;;;;;;10553685;28;20043;-85
2023/04/26 16:16:39;;;;;;;6.53;2.90;;;;;;;;;;10558967;28;20079;-85
2023/04/26 16:21:44;;;;;;;9.40;3.00;;;;;;;;;;10549590;28;20043;-85
2023/04/26 16:26:48;;;;;;;6.75;2.75;;;;;;;;;;10547771;28;20054;-86
2023/04/26 16:31:58;;;;;;;6.13;3.03;;;;;;;;;;10562559;28;20141;-87
2023/04/26 16:37:04;;;;;;;5.85;2.85;;;;;;;;;;10555285;28;20043;-86
2023/04/26 16:42:16;;;;;;;6.95;2.78;;;;;;;;;;10555027;28;20443;-86
2023/04/26 16:47:25;;;;;;;8.82;2.40;;;;;;;;;;10562176;28;20062;-86
2023/04/26 16:52:35;;;;;;;3.45;2.00;;;;;;;;;;10562106;28;20043;-87
2023/04/26 16:57:50;;;;;;;5.50;2.70;;;;;;;;;;10559227;28;20122;-86
2023/04/26 17:03:05;;;;;;;3.80;2.17;;;;;;;;;;10551097;28;20383;-88
2023/04/26 17:08:10;;;;;;;7.43;3.47;;;;;;;;;;10554416;28;20084;-86
2023/04/26 17:13:32;;;;;;;5.35;2.35;;;;;;;;;;10555917;28;20062;-86
2023/04/26 17:18:38;;;;;;;5.05;2.30;;;;;;;;;;10571186;28;20050;-85
2023/04/26 17:29:23;;;;;;;9.52;3.95;;;;;;;;;;10553434;28;20169;-85
2023/04/26 17:34:32;;;;;;;8.02;2.47;;;;;;;;;;10541452;28;20135;-86
2023/04/26 17:39:47;;;;;;;7.80;2.92;;;;;;;;;;10562575;28;20444;-86
2023/04/26 17:44:55;;;;;;;6.57;2.30;;;;;;;;;;10567813;28;20039;-86
2023/04/26 17:50:02;;;;;;;5.18;2.50;;;;;;;;;;10570276;28;20047;-84
2023/04/26 17:55:21;;;;;;;4.80;2.47;;;;;;;;;;10560358;27;20059;-85
2023/04/26 18:05:58;;;;;;;7.22;2.45;;;;;;;;;;10595840;27;20403;-85
2023/04/26 18:11:00;;;;;;;4.03;2.10;;;;;;;;;;10568039;28;20046;-85
2023/04/26 18:16:03;;;;;;;7.75;2.95;;;;;;;;;;10566530;28;20044;-87
2023/04/26 18:21:07;;;;;;;9.75;3.83;;;;;;;;;;10570225;28;20039;-85
2023/04/26 18:26:09;;;;;;;5.90;2.40;;;;;;;;;;10581449;27;20054;-86
2023/04/26 18:31:12;;;;;;;9.20;3.95;;;;;;;;;;10568972;28;20210;-86
2023/04/26 18:36:16;;;;;;;9.50;2.80;;;;;;;;;;10570528;28;20048;-85
2023/04/26 18:41:19;;;;;;;6.80;2.70;;;;;;;;;;10564199;28;20039;-85
2023/04/26 18:46:22;;;;;;;13.80;5.45;;;;;;;;;;10567976;28;20431;-85
2023/04/26 18:51:26;;;;;;;11.80;3.40;;;;;;;;;;10576493;27;20086;-85
2023/04/26 18:56:29;;;;;;;;;;;;;;;;;;10564446;28;20120;-85
2023/04/26 19:01:32;;;;;;;8.35;2.63;;;;;;;;;;10565654;28;19920;-85
2023/04/26 19:06:42;;;;;;;5.47;2.40;;;;;;;;;;10566678;28;20036;-86
2023/04/26 19:11:45;;;;;;;7.85;3.33;;;;;;;;;;10567515;28;20073;-86
2023/04/26 19:16:48;;;;;;;4.72;2.50;;;;;;;;;;10534769;28;20043;-85
2023/04/26 19:21:52;;;;;;;11.77;5.23;;;;;;;;;;10537263;28;20046;-85
2023/04/26 19:26:59;;;;;;;9.15;3.17;;;;;;;;;;10538432;28;20055;-88
2023/04/26 19:32:05;;;;;;;6.63;2.70;;;;;;;;;;10530894;28;20498;-76
2023/04/26 19:37:17;;;;;;;7.07;3.00;;;;;;;;;;10524557;28;20040;-74
2023/04/26 19:42:21;;;;;;;7.47;3.05;;;;;;;;;;10521131;28;20124;-75
2023/04/26 19:47:23;;;;;;;5.10;3.03;;;;;;;;;;10523040;28;20054;-76
2023/04/26 19:52:31;;;;;;;7.30;2.90;;;;;;;;;;10525091;28;20067;-75
2023/04/26 19:57:34;;;;;;;8.98;3.33;;;;;;;;;;10520228;28;20050;-76
2023/04/26 20:02:37;;;;;;;6.20;2.65;;;;;;;;;;10521471;28;20033;-75
2023/04/26 20:07:42;;;;;;;7.30;2.80;;;;;;;;;;10523007;28;20130;-74
2023/04/26 20:12:45;;;;;;;6.25;2.67;;;;;;;;;;10529380;28;20042;-76
2023/04/26 20:17:48;;;;;;;11.52;2.50;;;;;;;;;;10527298;28;20130;-75
2023/04/26 20:22:56;;;;;;;10.00;2.58;;;;;;;;;;10522252;28;20067;-74
2023/04/26 20:28:00;;;;;;;5.85;2.55;;;;;;;;;;10521060;28;20094;-75
2023/04/26 20:33:03;;;;;;;1.33;1.23;;;;;;;;;;10544357;28;20408;-74
2023/04/26 20:38:08;;;;;;;5.60;2.80;;;;;;;;;;10535121;28;20118;-74
2023/04/26 20:43:11;;;;;;;;;;;;;;;;;;10533404;28;20048;-75
2023/04/26 20:48:15;;;;;;;6.60;2.92;;;;;;;;;;10526742;28;19970;-75
2023/04/26 20:53:22;;;;;;;5.53;2.60;;;;;;;;;;10520887;28;20040;-76
2023/04/26 20:58:25;;;;;;;8.57;2.97;;;;;;;;;;10515296;28;20559;-75
2023/04/26 21:03:28;;;;;;;8.20;2.67;;;;;;;;;;10515006;28;20036;-75
2023/04/26 21:08:33;;;;;;;5.10;2.70;;;;;;;;;;10515010;28;21059;-77
2023/04/26 21:13:38;;;;;;;6.88;2.45;;;;;;;;;;10509582;28;20044;-75
2023/04/26 21:18:41;;;;;;;9.87;3.20;;;;;;;;;;10515964;28;20139;-74
2023/04/26 21:23:46;;;;;;;5.47;2.70;;;;;;;;;;10520896;28;20164;-77
2023/04/26 21:28:49;;;;;;;6.88;3.33;;;;;;;;;;10514891;28;20055;-77
2023/04/26 21:33:53;;;;;;;8.68;3.05;;;;;;;;;;10517425;28;20036;-76
2023/04/26 21:38:57;;;;;;;4.60;1.95;;;;;;;;;;10513968;28;20044;-76
2023/04/26 21:44:03;;;;;;;2.08;1.52;;;;;;;;;;10511809;28;20051;-75
2023/04/26 21:49:06;;;;;;;11.98;2.22;;;;;;;;;;10527722;28;20040;-75
2023/04/26 21:54:12;;;;;;;5.57;2.87;;;;;;;;;;10509236;28;20094;-76
2023/04/26 21:59:16;;;;;;;5.85;3.08;;;;;;;;;;10520452;28;20044;-75
2023/04/26 22:04:18;;;;;;;6.72;3.15;;;;;;;;;;10521227;28;20036;-75
2023/04/26 22:09:23;;;;;;;7.63;3.43;;;;;;;;;;10515854;28;20056;-74
2023/04/26 22:14:26;;;;;;;6.78;3.10;;;;;;;;;;10516299;28;20305;-74
2023/04/26 22:19:28;;;;;;;8.57;3.15;;;;;;;;;;10515018;28;20044;-75
2023/04/26 22:24:33;;;;;;;4.63;2.80;;;;;;;;;;10518067;28;20400;-74
2023/04/26 22:29:35;;;;;;;;;;;;;;;;;;10526648;28;20042;-74
2023/04/26 22:34:39;;;;;;;4.50;2.90;;;;;;;;;;10514915;28;19945;-74
2023/04/26 22:39:46;;;;;;;7.03;2.95;;;;;;;;;;10529737;28;20044;-74
2023/04/26 22:44:50;;;;;;;5.95;2.35;;;;;;;;;;10524525;28;20101;-72
2023/04/26 22:49:53;;;;;;;5.60;2.38;;;;;;;;;;10528531;28;20267;-75
2023/04/26 22:54:58;;;;;;;3.30;2.17;;;;;;;;;;10538179;28;20105;-76
2023/04/26 23:00:01;;;;;;;4.32;2.40;;;;;;;;;;10522481;28;20479;-76
2023/04/26 23:05:08;;;;;;;6.57;2.97;;;;;;;;;;10534172;28;20036;-75
2023/04/26 23:10:13;;;;;;;5.65;2.78;;;;;;;;;;10532661;28;20047;-73
2023/04/26 23:15:17;;;;;;;9.77;3.00;;;;;;;;;;10523838;28;20039;-76
2023/04/26 23:20:20;;;;;;;3.88;1.92;;;;;;;;;;10521584;28;20071;-75
2023/04/26 23:25:24;;;;;;;4.80;2.38;;;;;;;;;;10527925;28;20044;-76
2023/04/26 23:30:26;;;;;;;8.13;2.80;;;;;;;;;;10524473;28;20135;-75
2023/04/26 23:35:30;;;;;;;4.33;2.40;;;;;;;;;;10524846;28;20042;-76
2023/04/26 23:40:35;;;;;;;9.63;2.45;;;;;;;;;;10520222;28;20282;-75
2023/04/26 23:45:38;;;;;;;6.45;2.70;;;;;;;;;;10524991;28;20044;-75
2023/04/26 23:50:41;;;;;;;9.27;3.42;;;;;;;;;;10526386;28;20370;-74
2023/04/26 23:55:46;;;;;;;7.03;2.83;;;;;;;;;;10523196;28;20051;-76
